Time;durP1;ratioP1;P1;durP2;ratioP2;P2;SDS_P1;SDS_P2;PMS_P1;PMS_P2;Temp;Humidity;BMP_temperature;BMP_pressure;BME280_temperature;BME280_humidity;BME280_pressure;Samples;Min_cycle;Max_cycle;Signal;HPM_P1;HPM_P2
2023/03/08 00:00:33;;;;;;;11.90;8.10;;;;;;;7.40;39.91;96109.13;5053615;28;20592;-67
2023/03/08 00:02:59;;;;;;;13.40;8.60;;;;;;;7.43;40.06;96105.38;5049425;28;20443;-69
2023/03/08 00:05:24;;;;;;;12.27;8.90;;;;;;;7.47;39.44;96101.50;5054071;28;20183;-71
2023/03/08 00:07:53;;;;;;;14.20;8.83;;;;;;;7.33;40.02;96100.28;5055827;28;20187;-71
2023/03/08 00:10:18;;;;;;;13.27;8.87;;;;;;;7.42;40.40;96107.19;5062434;28;20269;-70
2023/03/08 00:12:44;;;;;;;13.03;8.63;;;;;;;7.46;40.27;96116.28;5054805;28;20520;-70
2023/03/08 00:15:10;;;;;;;16.33;8.97;;;;;;;7.30;40.38;96116.28;5028865;28;20206;-70
2023/03/08 00:17:38;;;;;;;12.13;8.40;;;;;;;7.38;40.41;96119.69;5048154;28;20248;-69
2023/03/08 00:20:05;;;;;;;11.33;8.23;;;;;;;7.45;40.67;96119.06;5048499;28;20560;-69
2023/03/08 00:22:37;;;;;;;14.07;9.10;;;;;;;7.27;40.81;96111.38;5046336;28;20442;-69
2023/03/08 00:25:04;;;;;;;16.57;8.97;;;;;;;7.25;40.50;96118.53;5047923;28;20945;-69
2023/03/08 00:27:29;;;;;;;14.10;8.77;;;;;;;7.41;40.63;96120.34;5048361;28;20902;-68
2023/03/08 00:29:54;;;;;;;15.27;9.20;;;;;;;7.36;40.92;96120.84;5048459;28;20437;-69
2023/03/08 00:32:20;;;;;;;16.67;9.57;;;;;;;7.35;40.59;96127.03;5048819;28;20267;-71
2023/03/08 00:34:45;;;;;;;17.47;10.23;;;;;;;7.31;40.86;96128.34;5051515;28;20183;-69
2023/03/08 00:37:12;;;;;;;15.73;9.73;;;;;;;7.26;40.67;96133.19;5048137;28;20213;-70
2023/03/08 00:39:37;;;;;;;16.00;9.10;;;;;;;6.77;41.67;96137.22;5050454;28;20187;-69
2023/03/08 00:42:03;;;;;;;20.33;9.50;;;;;;;6.89;41.74;96145.56;5039440;28;20491;-71
2023/03/08 00:44:29;;;;;;;15.23;9.60;;;;;;;7.04;41.44;96148.41;5040410;28;20191;-70
2023/03/08 00:46:54;;;;;;;14.13;9.23;;;;;;;7.17;41.57;96135.78;5052316;28;20191;-70
2023/03/08 00:49:21;;;;;;;14.97;9.47;;;;;;;7.17;41.47;96138.38;5043095;28;20187;-69
2023/03/08 00:51:47;;;;;;;16.20;10.30;;;;;;;7.14;41.17;96133.47;5046761;28;20313;-70
2023/03/08 00:54:12;;;;;;;13.90;8.63;;;;;;;7.27;41.11;96117.38;5047789;28;20417;-70
2023/03/08 00:56:38;;;;;;;13.87;9.13;;;;;;;6.90;41.87;96127.19;5045361;28;20694;-70
2023/03/08 00:59:03;;;;;;;15.73;9.77;;;;;;;7.22;41.26;96106.63;5042269;28;20206;-70
2023/03/08 01:01:29;;;;;;;16.30;9.30;;;;;;;7.29;41.23;96109.44;5052925;28;20252;-70
2023/03/08 01:03:54;;;;;;;13.50;9.43;;;;;;;7.31;41.02;96102.28;5049963;28;20232;-69
2023/03/08 01:06:19;;;;;;;15.13;9.60;;;;;;;7.31;41.05;96103.06;5052349;28;20205;-70
2023/03/08 01:08:45;;;;;;;13.67;9.10;;;;;;;7.10;41.73;96106.09;5044628;28;20663;-70
2023/03/08 01:11:18;;;;;;;16.87;9.40;;;;;;;7.11;41.73;96086.88;5050996;28;20214;-70
2023/03/08 01:13:44;;;;;;;18.03;10.60;;;;;;;6.79;42.31;96088.41;5033361;28;20187;-69
2023/03/08 01:16:22;;;;;;;15.27;10.40;;;;;;;7.04;42.14;96084.09;5054115;28;20482;-69
2023/03/08 01:18:47;;;;;;;16.27;10.53;;;;;;;6.92;42.05;96087.94;5043787;28;20197;-70
2023/03/08 01:21:13;;;;;;;22.30;9.50;;;;;;;6.85;42.41;96089.56;5029181;28;20540;-70
2023/03/08 01:23:38;;;;;;;16.50;11.00;;;;;;;6.80;42.67;96084.81;5040911;28;20222;-69
2023/03/08 01:26:06;;;;;;;15.97;10.23;;;;;;;6.80;42.72;96074.41;5037679;28;20175;-70
2023/03/08 01:28:33;;;;;;;20.13;10.50;;;;;;;6.70;43.04;96065.88;5038278;28;20585;-70
2023/03/08 01:31:04;;;;;;;18.17;10.77;;;;;;;6.58;43.15;96060.94;5037092;28;20446;-69
2023/03/08 01:33:30;;;;;;;12.63;9.23;;;;;;;6.77;42.62;96059.09;5037383;28;20541;-69
2023/03/08 01:35:55;;;;;;;18.00;10.93;;;;;;;6.66;43.20;96054.16;5043294;28;20546;-71
2023/03/08 01:38:22;;;;;;;16.07;9.70;;;;;;;6.64;43.06;96053.50;5041187;28;20195;-70
2023/03/08 01:40:48;;;;;;;18.10;10.73;;;;;;;6.47;43.40;96048.19;5043921;28;20433;-68
2023/03/08 01:43:28;;;;;;;18.70;10.37;;;;;;;6.46;43.50;96046.56;5040139;28;20438;-70
2023/03/08 01:46:17;;;;;;;15.73;10.20;;;;;;;6.46;43.54;96038.75;5045912;28;20178;-69
2023/03/08 01:49:04;;;;;;;21.40;10.50;;;;;;;6.66;42.92;96034.13;5042616;28;20468;-70
2023/03/08 01:51:41;;;;;;;14.73;10.10;;;;;;;6.68;42.94;96028.78;5035864;28;20459;-70
2023/03/08 01:54:10;;;;;;;15.83;10.20;;;;;;;6.73;42.54;96021.31;5039373;28;20456;-69
2023/03/08 01:56:36;;;;;;;15.90;10.60;;;;;;;6.67;43.09;96014.13;5046277;28;20518;-69
2023/03/08 01:59:02;;;;;;;16.60;9.80;;;;;;;6.75;42.86;96008.94;5036259;28;21228;-70
2023/03/08 02:01:28;;;;;;;17.10;10.33;;;;;;;6.78;43.02;96013.84;5049840;28;20445;-69
2023/03/08 02:03:53;;;;;;;17.27;9.43;;;;;;;6.86;42.98;96013.88;5037639;28;20926;-69
2023/03/08 02:06:19;;;;;;;18.10;9.87;;;;;;;6.53;43.38;96011.16;5039814;28;20175;-70
2023/03/08 02:08:45;;;;;;;20.43;10.63;;;;;;;6.65;43.17;96003.06;5031237;28;20240;-70
2023/03/08 02:11:11;;;;;;;15.70;10.10;;;;;;;6.71;42.90;96005.00;5038186;28;21893;-69
2023/03/08 02:13:38;;;;;;;16.20;9.93;;;;;;;6.74;42.94;96012.53;5044429;28;20253;-69
2023/03/08 02:16:06;;;;;;;15.73;10.50;;;;;;;6.74;43.03;96017.72;5040671;28;20458;-70
2023/03/08 02:18:32;;;;;;;15.93;9.57;;;;;;;6.71;42.89;96012.84;5038765;28;20438;-70
2023/03/08 02:20:57;;;;;;;14.17;9.13;;;;;;;6.68;42.84;96013.16;5035480;28;20436;-70
2023/03/08 02:23:23;;;;;;;20.13;11.53;;;;;;;6.56;43.03;96004.81;5036837;28;20287;-70
2023/03/08 02:26:07;;;;;;;15.60;10.00;;;;;;;6.71;43.09;96002.41;5036215;28;20236;-70
2023/03/08 02:28:33;;;;;;;18.10;10.43;;;;;;;6.77;43.03;95988.78;5035188;28;20530;-69
2023/03/08 02:30:58;;;;;;;15.10;9.97;;;;;;;6.70;42.96;95985.16;5035250;28;20853;-69
2023/03/08 02:33:24;;;;;;;14.30;9.90;;;;;;;6.67;42.95;95985.50;5042523;28;20422;-70
2023/03/08 02:35:50;;;;;;;13.60;10.03;;;;;;;6.65;43.56;95987.44;5031694;28;20207;-70
2023/03/08 02:38:17;;;;;;;15.60;8.93;;;;;;;6.70;43.31;95985.16;5039735;28;20798;-69
2023/03/08 02:40:42;;;;;;;18.97;10.50;;;;;;;6.57;43.31;95981.22;5044376;28;20190;-69
2023/03/08 02:43:08;;;;;;;16.37;9.93;;;;;;;6.57;43.32;95975.19;5032658;28;20454;-70
2023/03/08 02:45:33;;;;;;;16.37;10.00;;;;;;;6.60;43.24;95967.09;5045647;28;20201;-69
2023/03/08 02:48:00;;;;;;;21.97;9.43;;;;;;;6.72;42.98;95968.44;5037333;28;20601;-68
2023/03/08 02:50:26;;;;;;;16.33;9.70;;;;;;;6.69;42.96;95965.28;5033938;28;20269;-70
2023/03/08 02:52:51;;;;;;;15.13;9.60;;;;;;;6.63;43.09;95958.13;5046122;28;20528;-70
2023/03/08 02:55:16;;;;;;;13.70;9.40;;;;;;;6.65;43.33;95962.19;5041451;28;20239;-70
2023/03/08 02:57:42;;;;;;;18.17;10.40;;;;;;;6.74;42.78;95961.25;5037711;28;20314;-68
2023/03/08 03:00:08;;;;;;;21.70;9.30;;;;;;;6.40;43.36;95958.72;5051878;28;20273;-69
2023/03/08 03:02:34;;;;;;;19.67;10.13;;;;;;;6.72;43.33;95957.19;5045402;28;20232;-69
2023/03/08 03:05:05;;;;;;;15.47;9.70;;;;;;;6.49;43.54;95946.56;5040572;28;20448;-69
2023/03/08 03:07:34;;;;;;;18.10;10.03;;;;;;;6.58;43.33;95937.78;5043019;28;20181;-69
2023/03/08 03:10:00;;;;;;;15.00;9.47;;;;;;;6.60;43.36;95936.66;5041639;28;20460;-70
2023/03/08 03:12:25;;;;;;;16.37;9.60;;;;;;;6.60;43.30;95928.84;5047527;28;20556;-69
2023/03/08 03:14:51;;;;;;;16.70;9.50;;;;;;;6.64;42.90;95923.31;5053952;28;20183;-69
2023/03/08 03:17:16;;;;;;;17.33;9.30;;;;;;;6.79;43.06;95916.53;5048415;28;20211;-70
2023/03/08 03:19:42;;;;;;;15.60;9.57;;;;;;;6.87;42.58;95908.72;5052711;28;20199;-70
2023/03/08 03:22:07;;;;;;;14.83;9.90;;;;;;;6.88;42.57;95899.09;5040456;28;20211;-69
2023/03/08 03:24:32;;;;;;;14.10;9.60;;;;;;;6.91;42.64;95898.78;5047554;28;20278;-70
2023/03/08 03:26:58;;;;;;;13.13;9.20;;;;;;;6.87;42.52;95890.50;5042060;28;20211;-69
2023/03/08 03:29:23;;;;;;;15.30;9.17;;;;;;;6.93;42.55;95896.84;5046209;28;20295;-69
2023/03/08 03:31:49;;;;;;;14.00;9.20;;;;;;;6.88;42.60;95888.69;5050998;28;20779;-70
2023/03/08 03:34:14;;;;;;;15.33;9.00;;;;;;;6.87;42.76;95887.06;5048545;28;20608;-70
2023/03/08 03:36:40;;;;;;;16.40;9.00;;;;;;;6.76;42.58;95886.38;5048997;28;20215;-69
2023/03/08 03:39:05;;;;;;;13.03;9.10;;;;;;;6.76;42.65;95888.19;5040301;28;20638;-69
2023/03/08 03:41:30;;;;;;;17.70;10.13;;;;;;;6.82;42.90;95877.13;5048190;28;20298;-69
2023/03/08 03:43:57;;;;;;;14.00;8.67;;;;;;;6.84;42.64;95877.78;5041029;28;20187;-67
2023/03/08 03:46:23;;;;;;;15.20;9.20;;;;;;;6.83;42.77;95873.53;5049089;28;20815;-69
2023/03/08 03:48:48;;;;;;;12.80;9.37;;;;;;;6.82;42.96;95884.94;5049070;28;20418;-69
2023/03/08 03:51:16;;;;;;;14.00;8.40;;;;;;;6.77;42.78;95871.59;5043176;28;20218;-69
2023/03/08 03:53:42;;;;;;;12.97;8.90;;;;;;;6.84;42.62;95869.16;5047944;28;20186;-69
2023/03/08 03:56:11;;;;;;;14.00;9.20;;;;;;;6.93;42.36;95875.19;5045200;28;20464;-69
2023/03/08 03:58:37;;;;;;;13.37;8.97;;;;;;;6.89;42.35;95883.34;5044642;28;20180;-69
2023/03/08 04:01:09;;;;;;;13.67;9.00;;;;;;;6.88;42.79;95889.50;5045540;28;20430;-68
2023/03/08 04:03:34;;;;;;;16.23;9.90;;;;;;;6.93;42.54;95885.63;5046542;28;20190;-69
2023/03/08 04:06:08;;;;;;;13.10;9.50;;;;;;;6.91;42.19;95872.75;5048297;28;20507;-68
2023/03/08 04:08:34;;;;;;;12.57;8.37;;;;;;;6.93;42.28;95870.00;5053132;28;20192;-68
2023/03/08 04:11:00;;;;;;;15.20;9.53;;;;;;;6.99;42.33;95869.31;5047432;28;20818;-69
2023/03/08 04:13:25;;;;;;;12.43;8.80;;;;;;;6.99;42.51;95869.31;5053239;28;20471;-69
2023/03/08 04:15:50;;;;;;;14.77;9.53;;;;;;;7.02;42.04;95866.41;5044061;28;20238;-69
2023/03/08 04:18:16;;;;;;;15.37;9.23;;;;;;;7.04;42.40;95847.03;5024504;28;20183;-69
2023/03/08 04:20:44;;;;;;;13.67;9.30;;;;;;;7.09;42.63;95843.91;5034087;28;20258;-68
2023/03/08 04:23:09;;;;;;;16.57;8.90;;;;;;;7.15;42.54;95838.06;5034998;28;20276;-68
2023/03/08 04:25:34;;;;;;;15.57;9.33;;;;;;;7.13;42.17;95845.22;5028232;28;20434;-68
2023/03/08 04:28:00;;;;;;;13.30;8.97;;;;;;;7.07;42.52;95832.84;5031430;28;20190;-67
2023/03/08 04:30:25;;;;;;;15.40;9.30;;;;;;;7.14;42.32;95851.25;5034797;28;20274;-68
2023/03/08 04:32:51;;;;;;;16.27;8.67;;;;;;;7.08;42.50;95850.09;5036688;28;20269;-68
2023/03/08 04:35:16;;;;;;;14.43;9.90;;;;;;;7.03;41.97;95857.63;5033715;28;20202;-69
2023/03/08 04:37:44;;;;;;;15.07;9.40;;;;;;;6.99;42.57;95854.53;5045426;28;20381;-69
2023/03/08 04:40:10;;;;;;;16.50;9.87;;;;;;;7.04;42.25;95836.59;5039499;28;20205;-68
2023/03/08 04:42:36;;;;;;;12.93;8.93;;;;;;;6.95;42.45;95826.34;5035062;28;20460;-68
2023/03/08 04:45:01;;;;;;;14.23;9.33;;;;;;;6.95;42.29;95821.97;5038247;28;20457;-68
2023/03/08 04:47:27;;;;;;;18.93;8.90;;;;;;;6.97;42.44;95814.81;5040122;28;20186;-68
2023/03/08 04:49:52;;;;;;;15.17;9.30;;;;;;;7.06;42.74;95818.19;5030841;28;20190;-68
2023/03/08 04:52:18;;;;;;;19.10;9.60;;;;;;;7.10;42.23;95814.28;5043505;28;20203;-69
2023/03/08 04:54:43;;;;;;;17.30;10.23;;;;;;;7.09;42.16;95810.06;5041460;28;20546;-68
2023/03/08 04:57:08;;;;;;;13.50;9.20;;;;;;;7.09;42.56;95797.03;5046344;28;20675;-69
2023/03/08 04:59:34;;;;;;;17.37;9.60;;;;;;;7.12;42.45;95791.50;5045466;28;20558;-68
2023/03/08 05:02:00;;;;;;;16.10;10.17;;;;;;;7.08;42.79;95790.19;5041851;28;20215;-68
2023/03/08 05:04:26;;;;;;;20.33;10.07;;;;;;;7.01;42.74;95790.03;5056799;28;20182;-69
2023/03/08 05:06:51;;;;;;;18.70;11.10;;;;;;;7.04;42.63;95779.28;5049325;28;20273;-67
2023/03/08 05:09:17;;;;;;;14.90;10.50;;;;;;;7.04;42.68;95781.09;5041112;28;20195;-69
2023/03/08 05:11:42;;;;;;;13.90;9.43;;;;;;;7.00;42.78;95779.78;5046432;28;20287;-69
2023/03/08 05:14:08;;;;;;;16.23;10.10;;;;;;;6.95;42.71;95771.66;5048864;28;20270;-68
2023/03/08 05:16:33;;;;;;;16.40;10.23;;;;;;;6.93;43.21;95774.41;5043732;28;20264;-69
2023/03/08 05:18:59;;;;;;;16.00;9.90;;;;;;;6.90;43.54;95770.38;5048939;28;20476;-68
2023/03/08 05:21:24;;;;;;;18.73;10.90;;;;;;;6.82;43.50;95780.75;5049759;28;20282;-69
2023/03/08 05:23:50;;;;;;;15.80;10.40;;;;;;;6.90;43.21;95782.56;5044821;28;20223;-68
2023/03/08 05:26:16;;;;;;;17.10;10.70;;;;;;;6.89;43.32;95773.94;5044491;28;20843;-68
2023/03/08 05:28:42;;;;;;;16.57;10.17;;;;;;;6.90;43.54;95772.13;5046694;28;20198;-69
2023/03/08 05:31:18;;;;;;;15.27;10.50;;;;;;;6.95;43.13;95763.81;5047264;28;20946;-68
2023/03/08 05:33:45;;;;;;;17.33;11.30;;;;;;;6.96;43.24;95760.25;5047063;28;20582;-68
2023/03/08 05:36:11;;;;;;;15.80;10.93;;;;;;;6.96;43.17;95757.66;5039638;28;20534;-68
2023/03/08 05:38:37;;;;;;;16.17;9.90;;;;;;;6.97;42.84;95746.25;5053545;28;20498;-68
2023/03/08 05:41:05;;;;;;;17.80;10.63;;;;;;;7.00;43.25;95746.72;5043871;28;20433;-68
2023/03/08 05:43:30;;;;;;;14.40;9.60;;;;;;;7.04;42.87;95749.84;5043078;28;20183;-69
2023/03/08 05:45:58;;;;;;;26.00;11.23;;;;;;;7.09;43.39;95734.50;5041057;28;20517;-68
2023/03/08 05:48:24;;;;;;;20.40;11.53;;;;;;;7.15;42.89;95733.84;5032675;28;20187;-67
2023/03/08 05:50:50;;;;;;;17.47;9.80;;;;;;;7.14;42.91;95737.44;5042860;28;20433;-68
2023/03/08 05:53:15;;;;;;;18.00;10.33;;;;;;;7.21;43.12;95737.59;5042170;28;20488;-67
2023/03/08 05:55:40;;;;;;;16.30;10.50;;;;;;;7.20;43.04;95734.16;5042124;28;20606;-68
2023/03/08 05:58:06;;;;;;;17.03;11.70;;;;;;;7.32;43.03;95734.63;5033790;28;20600;-68
2023/03/08 06:00:31;;;;;;;17.77;11.37;;;;;;;7.31;42.59;95737.41;5047806;28;20943;-68
2023/03/08 06:03:02;;;;;;;18.53;11.10;;;;;;;7.31;43.09;95735.59;5051414;28;20293;-68
2023/03/08 06:05:28;;;;;;;20.30;11.00;;;;;;;7.36;42.75;95745.50;5043024;28;20229;-69
2023/03/08 06:07:54;;;;;;;18.87;11.17;;;;;;;7.37;43.10;95741.94;5035546;28;20883;-68
2023/03/08 06:10:20;;;;;;;17.93;12.07;;;;;;;7.36;42.66;95738.53;5045707;28;20418;-68
2023/03/08 06:12:45;;;;;;;17.67;11.00;;;;;;;7.42;42.85;95744.84;5050477;28;20285;-69
2023/03/08 06:15:11;;;;;;;19.80;11.67;;;;;;;7.41;42.62;95743.22;5045861;28;20274;-68
2023/03/08 06:17:37;;;;;;;19.20;11.23;;;;;;;7.40;42.83;95736.38;5037152;28;20200;-67
2023/03/08 06:20:03;;;;;;;17.77;12.43;;;;;;;7.23;43.38;95741.63;5042234;28;20437;-68
2023/03/08 06:22:29;;;;;;;21.17;12.13;;;;;;;7.31;43.59;95729.59;5041009;28;20457;-68
2023/03/08 06:24:54;;;;;;;17.60;11.23;;;;;;;7.43;43.95;95725.63;5046000;28;20236;-68
2023/03/08 06:27:19;;;;;;;19.43;11.73;;;;;;;7.37;43.25;95714.06;5042631;28;20262;-68
2023/03/08 06:29:47;;;;;;;19.80;12.00;;;;;;;7.48;43.51;95705.06;5049412;28;20748;-67
2023/03/08 06:32:12;;;;;;;17.37;11.93;;;;;;;7.53;43.75;95707.16;5044456;28;20301;-69
2023/03/08 06:34:38;;;;;;;28.80;12.87;;;;;;;7.52;43.91;95700.31;5039803;28;20994;-69
2023/03/08 06:37:03;;;;;;;19.80;12.57;;;;;;;7.53;43.63;95700.16;5042078;28;20207;-68
2023/03/08 06:39:30;;;;;;;20.90;12.60;;;;;;;7.50;43.86;95690.06;5045270;28;20179;-69
2023/03/08 06:41:56;;;;;;;27.10;12.40;;;;;;;7.37;44.65;95693.19;5044373;28;20648;-68
2023/03/08 06:44:21;;;;;;;19.33;12.67;;;;;;;7.43;44.52;95685.72;5051672;28;20505;-68
2023/03/08 06:46:47;;;;;;;21.03;13.20;;;;;;;7.42;44.49;95682.31;5041926;28;20450;-68
2023/03/08 06:49:12;;;;;;;29.43;13.50;;;;;;;7.45;44.79;95675.94;5040823;28;20515;-68
2023/03/08 06:51:38;;;;;;;21.20;13.00;;;;;;;7.56;44.54;95677.34;5043476;28;20332;-67
2023/03/08 06:54:03;;;;;;;18.23;12.33;;;;;;;7.60;44.59;95673.41;5055330;28;20197;-69
2023/03/08 06:56:29;;;;;;;23.13;13.97;;;;;;;7.66;44.42;95672.72;5047501;28;20294;-69
2023/03/08 06:58:55;;;;;;;21.53;14.00;;;;;;;7.76;44.42;95662.06;5049811;28;20190;-68
2023/03/08 07:01:20;;;;;;;21.40;13.97;;;;;;;7.72;44.25;95671.22;5046512;28;20229;-72
2023/03/08 07:03:47;;;;;;;22.23;13.43;;;;;;;7.76;43.83;95670.72;5045453;28;20193;-69
2023/03/08 07:06:13;;;;;;;24.47;13.90;;;;;;;7.85;43.75;95674.09;5033407;28;20186;-68
2023/03/08 07:08:39;;;;;;;21.53;13.37;;;;;;;7.85;43.84;95671.47;5054421;28;20418;-70
2023/03/08 07:11:05;;;;;;;22.07;13.80;;;;;;;7.89;43.94;95664.13;5053909;28;20179;-70
2023/03/08 07:13:31;;;;;;;19.33;12.63;;;;;;;7.92;43.82;95653.34;5048789;28;20197;-68
2023/03/08 07:15:57;;;;;;;24.07;14.50;;;;;;;7.87;43.95;95647.81;5051009;28;20453;-69
2023/03/08 07:18:22;;;;;;;19.93;13.60;;;;;;;7.92;44.80;95642.91;5050265;28;20206;-69
2023/03/08 07:21:06;;;;;;;28.63;13.50;;;;;;;8.00;44.04;95642.84;5047952;28;20270;-70
2023/03/08 07:23:32;;;;;;;24.03;14.80;;;;;;;8.01;43.83;95644.47;5053799;28;20184;-68
2023/03/08 07:25:57;;;;;;;27.97;14.10;;;;;;;8.09;44.15;95631.34;5047227;28;20417;-68
2023/03/08 07:28:22;;;;;;;22.77;13.60;;;;;;;8.09;44.14;95635.78;5053907;28;20671;-68
2023/03/08 07:30:49;;;;;;;22.43;14.33;;;;;;;8.08;43.77;95628.94;5048973;28;20199;-68
2023/03/08 07:33:16;;;;;;;19.80;13.80;;;;;;;8.08;44.31;95624.50;5042335;28;20263;-68
2023/03/08 07:35:41;;;;;;;22.03;14.83;;;;;;;8.09;44.42;95628.75;5051047;28;21118;-69
2023/03/08 07:38:07;;;;;;;28.70;14.30;;;;;;;8.12;44.10;95625.00;5042158;28;20465;-68
2023/03/08 07:40:32;;;;;;;23.63;13.33;;;;;;;8.17;44.12;95621.84;5047762;28;20199;-67
2023/03/08 07:42:59;;;;;;;24.10;13.87;;;;;;;8.18;44.46;95613.84;5040094;28;20214;-67
2023/03/08 07:45:25;;;;;;;22.87;13.07;;;;;;;8.00;44.76;95608.94;5050173;28;20194;-68
2023/03/08 07:47:51;;;;;;;22.93;13.30;;;;;;;8.13;44.35;95611.75;5041346;28;20463;-68
2023/03/08 07:50:17;;;;;;;17.97;12.53;;;;;;;8.18;44.70;95598.19;5041758;28;20191;-68
2023/03/08 07:52:43;;;;;;;22.37;12.60;;;;;;;8.16;45.22;95605.38;5057659;28;20455;-69
2023/03/08 07:55:10;;;;;;;21.10;12.90;;;;;;;8.00;45.56;95596.69;5053662;28;20805;-70
2023/03/08 07:57:35;;;;;;;17.13;11.53;;;;;;;8.07;46.33;95590.78;5054609;28;20201;-69
2023/03/08 08:00:00;;;;;;;21.33;12.30;;;;;;;8.13;46.60;95596.09;5066293;28;20432;-69
2023/03/08 08:02:26;;;;;;;17.93;12.40;;;;;;;8.10;46.46;95582.59;5052161;28;20256;-70
2023/03/08 08:04:51;;;;;;;15.07;11.40;;;;;;;8.24;46.23;95570.56;5054775;28;20212;-69
2023/03/08 08:07:17;;;;;;;19.13;11.20;;;;;;;8.13;47.54;95570.00;5038049;28;20202;-69
2023/03/08 08:09:42;;;;;;;15.60;11.10;;;;;;;8.28;47.20;95561.41;5036409;28;20623;-69
2023/03/08 08:12:08;;;;;;;14.10;9.90;;;;;;;8.18;47.83;95550.41;5043630;28;20206;-67
2023/03/08 08:14:33;;;;;;;19.33;10.80;;;;;;;8.24;47.42;95544.47;5052401;28;20584;-69
2023/03/08 08:16:59;;;;;;;21.07;11.00;;;;;;;8.27;47.60;95544.13;5043662;28;20298;-68
2023/03/08 08:19:25;;;;;;;17.70;10.77;;;;;;;8.28;48.01;95538.69;5050295;28;20191;-68
2023/03/08 08:21:50;;;;;;;13.30;9.10;;;;;;;8.26;48.39;95527.63;5050507;28;20441;-69
2023/03/08 08:24:16;;;;;;;15.90;10.00;;;;;;;8.30;48.06;95538.53;5044512;28;20230;-71
2023/03/08 08:26:41;;;;;;;15.03;10.17;;;;;;;8.27;47.77;95525.84;5035996;28;20238;-72
2023/03/08 08:29:07;;;;;;;30.47;10.63;;;;;;;8.25;48.28;95510.34;5042776;28;20192;-71
2023/03/08 08:31:32;;;;;;;11.60;9.00;;;;;;;8.33;49.03;95508.66;5037509;28;20302;-72
2023/03/08 08:33:59;;;;;;;14.70;10.10;;;;;;;8.48;48.61;95503.47;5053309;28;20214;-71
2023/03/08 08:36:25;;;;;;;17.37;10.27;;;;;;;8.42;48.06;95497.13;5035514;28;20633;-70
2023/03/08 08:38:50;;;;;;;18.13;11.17;;;;;;;8.47;48.06;95494.81;5037744;28;20510;-69
2023/03/08 08:41:18;;;;;;;15.00;10.47;;;;;;;8.51;47.91;95484.81;5038627;28;20546;-69
2023/03/08 08:43:44;;;;;;;16.90;11.30;;;;;;;8.57;48.64;95482.31;5034332;28;20299;-70
2023/03/08 08:46:10;;;;;;;22.63;11.80;;;;;;;8.59;48.55;95479.50;5035588;28;20419;-69
2023/03/08 08:48:37;;;;;;;15.90;11.40;;;;;;;8.65;48.88;95472.72;5034161;28;20840;-70
2023/03/08 08:51:07;;;;;;;17.63;11.13;;;;;;;8.59;48.82;95474.28;5040512;28;20183;-69
2023/03/08 08:53:33;;;;;;;22.47;11.67;;;;;;;8.69;49.23;95480.03;5052436;28;20448;-69
2023/03/08 08:55:58;;;;;;;22.27;12.73;;;;;;;8.77;49.62;95463.44;5043229;28;21188;-69
2023/03/08 08:58:24;;;;;;;22.63;12.00;;;;;;;8.78;49.48;95466.88;5042755;28;20427;-70
2023/03/08 09:00:50;;;;;;;22.83;13.53;;;;;;;8.50;49.04;95457.91;5052090;28;20179;-69
2023/03/08 09:03:15;;;;;;;17.57;11.70;;;;;;;8.54;49.04;95467.00;5052549;28;20460;-69
2023/03/08 09:05:43;;;;;;;15.53;11.70;;;;;;;8.59;49.01;95466.44;5050774;28;20183;-69
2023/03/08 09:08:09;;;;;;;18.43;12.37;;;;;;;8.34;49.20;95456.25;5050989;28;20212;-70
2023/03/08 09:10:36;;;;;;;16.20;11.70;;;;;;;8.55;49.34;95467.81;5024740;28;20422;-69
2023/03/08 09:13:02;;;;;;;17.57;11.27;;;;;;;8.65;49.01;95468.34;5053357;28;20452;-70
2023/03/08 09:15:27;;;;;;;19.20;11.60;;;;;;;8.74;49.66;95467.22;5049541;28;20491;-71
2023/03/08 09:17:53;;;;;;;17.67;11.80;;;;;;;8.66;49.10;95461.31;5040067;28;20295;-69
2023/03/08 09:20:19;;;;;;;18.83;11.90;;;;;;;8.72;48.67;95450.13;5044226;28;20656;-70
2023/03/08 09:22:45;;;;;;;18.33;12.20;;;;;;;8.72;49.13;95450.94;5043749;28;20573;-71
2023/03/08 09:25:11;;;;;;;16.53;11.53;;;;;;;8.69;48.90;95433.03;5049474;28;20429;-69
2023/03/08 09:27:38;;;;;;;18.03;12.00;;;;;;;8.74;49.24;95425.44;5050418;28;20301;-70
2023/03/08 09:30:05;;;;;;;19.27;12.50;;;;;;;8.74;49.02;95428.06;5049838;28;20444;-70
2023/03/08 09:32:35;;;;;;;19.20;11.73;;;;;;;8.70;49.17;95415.56;5039653;28;20983;-70
2023/03/08 09:35:01;;;;;;;19.00;12.60;;;;;;;8.75;49.67;95428.88;5050152;28;20675;-70
2023/03/08 09:37:26;;;;;;;17.40;12.67;;;;;;;8.77;49.18;95416.44;5046503;28;20461;-71
2023/03/08 09:39:52;;;;;;;21.73;12.63;;;;;;;8.84;48.96;95404.25;5037416;28;20475;-71
2023/03/08 09:42:26;;;;;;;17.30;12.50;;;;;;;8.83;49.09;95404.44;5049845;28;20205;-69
2023/03/08 09:45:24;;;;;;;17.97;12.33;;;;;;;8.94;49.49;95398.75;5042892;28;20174;-70
2023/03/08 09:48:06;;;;;;;35.40;12.50;;;;;;;8.98;49.05;95405.19;5048450;28;20413;-70
2023/03/08 09:50:41;;;;;;;29.87;12.57;;;;;;;8.97;49.09;95398.34;5046737;28;20427;-69
2023/03/08 09:53:16;;;;;;;20.90;12.03;;;;;;;9.09;48.89;95397.84;5051233;28;21047;-71
2023/03/08 09:55:46;;;;;;;19.03;12.10;;;;;;;9.17;49.13;95398.53;5031920;28;20925;-71
2023/03/08 09:58:21;;;;;;;16.33;11.30;;;;;;;9.24;48.81;95390.75;5036491;28;20418;-71
2023/03/08 10:00:46;;;;;;;15.47;10.60;;;;;;;9.21;49.28;95389.31;5037791;28;20449;-71
2023/03/08 10:03:39;;;;;;;14.20;9.17;;;;;;;9.34;49.59;95375.53;5048463;28;20984;-69
2023/03/08 10:06:43;;;;;;;12.00;8.73;;;;;;;9.31;50.83;95372.50;5048298;28;20631;-68
2023/03/08 10:09:36;;;;;;;13.07;8.90;;;;;;;9.20;51.67;95369.41;5045350;28;20436;-69
2023/03/08 10:12:10;;;;;;;12.53;8.87;;;;;;;9.56;51.28;95359.84;5043646;28;20907;-70
2023/03/08 10:14:40;;;;;;;12.67;9.03;;;;;;;9.67;51.32;95361.91;5056897;28;21003;-70
2023/03/08 10:17:12;;;;;;;13.40;8.77;;;;;;;9.57;52.06;95377.16;5048002;28;20450;-70
2023/03/08 10:19:43;;;;;;;15.77;8.53;;;;;;;9.77;52.17;95351.09;5050505;28;20430;-70
2023/03/08 10:22:15;;;;;;;10.40;7.40;;;;;;;9.89;52.26;95356.59;5046762;28;20441;-70
2023/03/08 10:25:14;;;;;;;9.27;6.33;;;;;;;9.53;53.70;95362.81;5039173;28;20448;-70
2023/03/08 10:27:39;;;;;;;11.20;7.37;;;;;;;9.86;53.52;95351.75;5042063;28;20448;-68
2023/03/08 10:30:14;;;;;;;10.40;6.57;;;;;;;9.65;54.56;95363.91;5042759;28;20782;-68
2023/03/08 10:32:45;;;;;;;11.63;8.30;;;;;;;9.55;55.17;95342.53;5037281;28;20240;-68
2023/03/08 10:35:10;;;;;;;10.57;6.77;;;;;;;9.79;55.06;95337.84;5044024;28;20429;-70
2023/03/08 10:37:36;;;;;;;7.27;6.50;;;;;;;10.04;54.98;95338.16;5051810;28;20552;-70
2023/03/08 10:40:08;;;;;;;10.17;6.40;;;;;;;9.97;55.39;95329.47;5055208;28;20182;-70
2023/03/08 10:42:34;;;;;;;10.00;6.47;;;;;;;10.28;54.99;95331.63;5050275;28;20332;-70
2023/03/08 10:45:11;;;;;;;8.30;5.60;;;;;;;10.42;55.15;95310.75;5046103;28;20512;-70
2023/03/08 10:47:37;;;;;;;8.57;6.07;;;;;;;10.68;54.78;95320.47;5046697;28;20777;-70
2023/03/08 10:50:16;;;;;;;6.47;4.20;;;;;;;10.65;55.34;95310.38;5044558;28;20426;-70
2023/03/08 10:52:43;;;;;;;8.67;4.90;;;;;;;11.36;53.95;95318.66;5049257;28;20450;-70
2023/03/08 10:55:12;;;;;;;6.33;4.97;;;;;;;11.61;53.55;95318.03;5016398;28;20446;-70
2023/03/08 10:57:40;;;;;;;9.47;4.60;;;;;;;11.52;53.43;95310.38;5037243;28;20496;-69
2023/03/08 11:00:30;;;;;;;5.17;4.30;;;;;;;11.49;53.58;95316.03;5046161;28;20479;-70
2023/03/08 11:03:09;;;;;;;4.33;3.60;;;;;;;11.21;54.54;95311.81;5042203;28;20445;-70
2023/03/08 11:05:35;;;;;;;4.43;3.33;;;;;;;11.56;54.01;95320.47;5037737;28;20417;-70
2023/03/08 11:08:00;;;;;;;7.93;3.50;;;;;;;11.76;53.57;95313.34;5046942;28;20418;-69
2023/03/08 11:10:33;;;;;;;4.93;3.07;;;;;;;11.88;53.66;95302.22;5037705;28;20183;-69
2023/03/08 11:13:01;;;;;;;3.50;2.30;;;;;;;11.53;54.98;95311.19;5036471;28;20610;-69
2023/03/08 11:15:28;;;;;;;5.50;2.90;;;;;;;12.00;54.00;95326.06;5056962;28;20512;-70
2023/03/08 11:18:13;;;;;;;3.93;2.70;;;;;;;12.06;53.90;95318.16;5043276;28;20458;-70
2023/03/08 11:20:44;;;;;;;4.90;1.53;;;;;;;11.86;54.59;95331.31;5043775;28;20425;-69
2023/03/08 11:23:32;;;;;;;1.97;1.87;;;;;;;12.16;53.72;95324.78;5044837;28;20509;-70
2023/03/08 11:26:11;;;;;;;5.93;1.40;;;;;;;12.10;54.14;95336.91;5039076;28;20426;-70
2023/03/08 11:29:00;;;;;;;2.30;1.90;;;;;;;12.24;53.89;95333.22;5047731;28;20433;-70
2023/03/08 11:31:32;;;;;;;2.33;1.60;;;;;;;12.17;54.00;95336.91;5051267;28;20465;-70